Time;durP1;ratioP1;P1;durP2;ratioP2;P2;SDS_P1;SDS_P2;PMS_P1;PMS_P2;Temp;Humidity;BMP_temperature;BMP_pressure;BME280_temperature;BME280_humidity;BME280_pressure;Samples;Min_cycle;Max_cycle;Signal;HPM_P1;HPM_P2
2021/04/22 00:01:16;;;;;;;8.03;1.70;;;;;;;16.26;80.67;99772.72;4958403;28;20043;-64
2021/04/22 00:03:42;;;;;;;3.47;1.50;;;;;;;16.24;80.54;99778.72;4959605;28;20055;-65
2021/04/22 00:06:08;;;;;;;7.40;1.83;;;;;;;16.28;80.82;99779.69;4958515;28;20042;-66
2021/04/22 00:08:34;;;;;;;4.60;1.53;;;;;;;16.20;80.82;99769.25;4954365;28;20039;-66
2021/04/22 00:11:01;;;;;;;6.67;1.97;;;;;;;16.25;80.60;99773.91;4963575;28;20166;-66
2021/04/22 00:13:29;;;;;;;8.20;1.70;;;;;;;16.28;80.74;99770.41;4957036;28;20074;-66
2021/04/22 00:16:00;;;;;;;4.83;1.63;;;;;;;16.27;80.80;99769.59;4957588;28;20039;-65
2021/04/22 00:18:26;;;;;;;3.27;1.70;;;;;;;16.32;80.84;99777.84;4956186;28;20157;-66
2021/04/22 00:20:52;;;;;;;3.50;1.70;;;;;;;16.25;80.52;99768.28;4965513;28;20412;-67
2021/04/22 00:23:19;;;;;;;4.20;1.40;;;;;;;16.34;80.72;99789.63;4955750;28;20047;-66
2021/04/22 00:25:45;;;;;;;6.40;2.20;;;;;;;16.34;80.37;99788.75;4961225;28;20415;-65
2021/04/22 00:28:14;;;;;;;11.77;2.60;;;;;;;16.24;80.43;99770.28;4961001;28;20043;-77
2021/04/22 00:30:42;;;;;;;7.03;1.90;;;;;;;16.37;80.20;99790.09;4958055;28;20047;-78
2021/04/22 00:33:12;;;;;;;13.03;2.20;;;;;;;16.29;80.29;99775.69;4958593;28;20408;-81
2021/04/22 00:35:39;;;;;;;8.20;1.65;;;;;;;16.19;80.17;99773.25;4962876;28;20609;-76
2021/04/22 00:38:06;;;;;;;11.77;2.35;;;;;;;16.27;80.08;99791.28;4962090;28;20481;-77
2021/04/22 00:40:33;;;;;;;8.20;1.63;;;;;;;16.25;80.26;99783.19;4963410;28;20050;-79
2021/04/22 00:43:01;;;;;;;9.03;1.90;;;;;;;16.20;80.20;99774.91;4963805;28;20063;-79
2021/04/22 00:45:27;;;;;;;8.33;1.83;;;;;;;16.16;80.36;99779.56;4958147;28;20507;-77
2021/04/22 00:47:54;;;;;;;11.43;1.87;;;;;;;15.84;80.29;99748.03;4963720;28;20046;-77
2021/04/22 00:50:33;;;;;;;10.70;1.67;;;;;;;16.08;80.16;99774.78;4964815;28;20456;-78
2021/04/22 00:53:00;;;;;;;12.53;1.90;;;;;;;16.11;80.01;99786.22;4964205;28;20043;-77
2021/04/22 00:55:30;;;;;;;13.37;2.17;;;;;;;16.15;80.17;99785.53;4964932;28;20050;-80
2021/04/22 00:57:57;;;;;;;5.85;2.28;;;;;;;16.13;80.39;99783.03;4960627;28;20054;-70
2021/04/22 01:00:27;;;;;;;8.33;2.07;;;;;;;16.11;80.30;99785.38;4962563;28;20055;-71
2021/04/22 01:02:54;;;;;;;13.27;2.77;;;;;;;16.18;80.32;99794.16;4966422;28;20543;-70
2021/04/22 01:05:24;;;;;;;5.13;1.90;;;;;;;16.16;80.50;99773.94;4959422;28;20039;-69
2021/04/22 01:07:51;;;;;;;9.75;1.77;;;;;;;16.19;80.30;99787.34;4967594;28;20062;-68
2021/04/22 01:10:19;;;;;;;13.13;1.88;;;;;;;16.21;80.25;99785.03;4957078;28;20055;-68
2021/04/22 01:12:46;;;;;;;3.07;1.80;;;;;;;16.27;80.44;99778.03;4959593;28;20078;-68
2021/04/22 01:15:18;;;;;;;7.10;2.00;;;;;;;16.21;80.45;99770.13;4962021;28;20043;-68
2021/04/22 01:17:45;;;;;;;3.07;1.60;;;;;;;16.29;80.23;99777.69;4958540;28;20043;-68
2021/04/22 01:20:21;;;;;;;6.50;1.60;;;;;;;16.27;80.30;99778.03;4959724;28;20130;-77
2021/04/22 01:22:48;;;;;;;8.57;1.73;;;;;;;16.28;79.89;99782.50;4969942;28;20049;-76
2021/04/22 01:25:18;;;;;;;7.63;1.87;;;;;;;16.30;79.68;99780.16;4959561;28;20047;-71
2021/04/22 01:27:45;;;;;;;10.25;1.80;;;;;;;16.28;79.74;99776.88;4958366;28;20040;-71
2021/04/22 01:30:16;;;;;;;7.50;1.88;;;;;;;16.19;79.56;99770.44;4958722;28;20484;-70
2021/04/22 01:32:42;;;;;;;17.38;2.65;;;;;;;16.28;79.94;99779.69;4961525;28;20094;-76
2021/04/22 01:35:13;;;;;;;16.70;2.28;;;;;;;16.20;79.72;99774.91;4962937;28;20096;-71
2021/04/22 01:37:39;;;;;;;;;;;;;;;16.29;80.66;99775.69;4961232;28;20126;-73
2021/04/22 01:40:07;;;;;;;7.83;2.23;;;;;;;16.27;80.04;99768.75;4964680;28;19926;-71
2021/04/22 01:42:33;;;;;;;4.57;1.70;;;;;;;16.22;79.91;99771.75;4963740;28;20054;-72
2021/04/22 01:45:00;;;;;;;6.83;1.60;;;;;;;16.20;80.02;99769.25;4967312;28;20061;-72
2021/04/22 01:47:27;;;;;;;9.40;2.63;;;;;;;16.22;80.12;99778.22;4958202;28;20051;-70
2021/04/22 01:49:53;;;;;;;7.17;1.93;;;;;;;15.90;80.20;99725.31;4957645;28;20051;-71
2021/04/22 01:52:19;;;;;;;14.33;3.00;;;;;;;16.16;79.96;99775.91;4940191;28;20133;-75
2021/04/22 01:54:46;;;;;;;15.33;2.87;;;;;;;16.06;79.97;99763.03;4962379;28;20074;-81
2021/04/22 01:57:12;;;;;;;11.03;2.57;;;;;;;16.14;79.90;99779.09;4959245;28;20047;-70
2021/04/22 01:59:39;;;;;;;6.57;2.17;;;;;;;16.02;80.00;99768.50;4965706;28;20062;-70
2021/04/22 02:02:05;;;;;;;9.47;2.50;;;;;;;16.02;80.24;99773.31;4948000;28;20093;-71
2021/04/22 02:04:31;;;;;;;10.77;2.20;;;;;;;16.04;80.26;99783.09;4965786;28;20074;-70
2021/04/22 02:06:58;;;;;;;14.03;3.17;;;;;;;16.01;80.13;99778.13;4956210;28;20059;-71
2021/04/22 02:09:24;;;;;;;15.53;2.73;;;;;;;16.01;80.63;99788.56;4958283;28;20182;-71
2021/04/22 02:11:50;;;;;;;9.23;3.13;;;;;;;15.96;80.52;99778.28;4955678;28;20050;-70
2021/04/22 02:14:16;;;;;;;11.73;2.77;;;;;;;15.92;80.50;99765.22;4959848;28;20039;-72
2021/04/22 02:16:43;;;;;;;9.57;2.37;;;;;;;16.03;80.49;99784.25;4965541;28;20058;-72
2021/04/22 02:19:10;;;;;;;15.37;2.70;;;;;;;15.97;80.73;99767.88;4963119;28;20481;-72
2021/04/22 02:21:37;;;;;;;11.40;2.97;;;;;;;16.05;80.40;99789.53;4961760;28;20411;-70
2021/04/22 02:24:03;;;;;;;19.27;2.67;;;;;;;16.03;80.55;99792.72;4961342;28;20058;-70
2021/04/22 02:26:29;;;;;;;10.80;2.87;;;;;;;16.06;80.27;99780.75;4962534;28;20043;-71
2021/04/22 02:28:56;;;;;;;15.03;3.40;;;;;;;16.02;80.58;99778.94;4956717;28;20054;-70
2021/04/22 02:31:25;;;;;;;11.97;2.50;;;;;;;15.97;80.50;99770.69;4965422;28;20051;-69
2021/04/22 02:33:53;;;;;;;13.47;2.70;;;;;;;16.11;80.41;99785.38;4955977;28;20065;-74
2021/04/22 02:36:20;;;;;;;11.07;3.30;;;;;;;16.09;80.35;99780.06;4960101;28;20049;-73
2021/04/22 02:38:50;;;;;;;8.83;2.40;;;;;;;16.02;80.51;99767.69;4954777;28;20047;-77
2021/04/22 02:41:16;;;;;;;13.02;3.47;;;;;;;16.14;80.52;99790.34;4959447;28;20054;-79
2021/04/22 02:43:42;;;;;;;18.70;3.77;;;;;;;16.14;80.16;99798.81;4963235;28;20055;-79
2021/04/22 02:46:09;;;;;;;18.43;3.40;;;;;;;16.13;80.38;99790.69;4942184;28;20378;-78
2021/04/22 02:48:35;;;;;;;11.67;3.30;;;;;;;16.02;80.20;99784.59;4960609;28;20484;-81
2021/04/22 02:51:03;;;;;;;10.73;2.60;;;;;;;16.04;79.98;99780.28;4962347;28;20038;-78
2021/04/22 02:53:30;;;;;;;22.93;3.13;;;;;;;16.10;79.96;99792.16;4960143;28;20047;-77
2021/04/22 02:55:56;;;;;;;21.90;5.50;;;;;;;15.96;80.13;99775.47;4963052;28;20043;-85
2021/04/22 02:58:25;;;;;;;20.87;2.47;;;;;;;16.02;80.06;99795.84;4961594;28;20051;-88
2021/04/22 03:00:53;;;;;;;15.77;2.50;;;;;;;16.01;80.17;99791.38;4960840;28;20043;-86
2021/04/22 03:03:19;;;;;;;15.00;3.03;;;;;;;15.82;79.89;99772.03;4960219;28;20043;-72
2021/04/22 03:05:46;;;;;;;10.50;2.60;;;;;;;15.90;79.67;99790.06;4963511;28;20047;-71
2021/04/22 03:08:13;;;;;;;15.83;2.70;;;;;;;15.97;79.36;99793.22;4961682;28;20047;-72
2021/04/22 03:10:39;;;;;;;9.90;2.47;;;;;;;15.90;79.36;99788.09;4956880;28;20039;-71
2021/04/22 03:13:07;;;;;;;13.67;3.03;;;;;;;15.94;79.25;99793.91;4958517;28;20054;-70
2021/04/22 03:15:33;;;;;;;12.67;2.90;;;;;;;15.76;79.09;99777.03;4955649;28;20051;-70
2021/04/22 03:18:01;;;;;;;10.80;3.00;;;;;;;15.82;79.12;99795.38;4961392;28;22308;-71
2021/04/22 03:20:27;;;;;;;20.13;3.73;;;;;;;15.77;79.12;99800.38;4961849;28;20047;-79
2021/04/22 03:22:55;;;;;;;17.70;2.50;;;;;;;15.70;79.07;99800.06;4962797;28;20042;-77
2021/04/22 03:25:24;;;;;;;13.17;2.53;;;;;;;15.59;78.82;99779.84;4957470;28;20055;-66
2021/04/22 03:27:50;;;;;;;18.23;2.95;;;;;;;15.69;78.90;99804.88;4962987;28;20040;-66
2021/04/22 03:30:21;;;;;;;21.30;4.13;;;;;;;15.62;78.89;99798.84;4958636;28;20126;-69
2021/04/22 03:32:47;;;;;;;10.50;2.28;;;;;;;15.33;78.95;99757.34;4961753;28;20063;-67
2021/04/22 03:35:17;;;;;;;16.87;3.23;;;;;;;15.58;78.95;99803.50;4958341;28;20046;-69
2021/04/22 03:37:43;;;;;;;11.77;2.30;;;;;;;15.58;78.93;99806.31;4955755;28;20054;-70
2021/04/22 03:40:13;;;;;;;26.63;4.10;;;;;;;15.57;79.06;99796.22;4955654;28;20070;-71
2021/04/22 03:42:40;;;;;;;20.13;5.38;;;;;;;15.56;78.85;99803.03;4966081;28;20057;-75
2021/04/22 03:45:08;;;;;;;17.47;2.87;;;;;;;15.47;79.01;99790.94;4959286;28;20071;-72
2021/04/22 03:47:35;;;;;;;9.93;3.23;;;;;;;15.46;78.75;99792.13;4961683;28;20475;-67
2021/04/22 03:50:04;;;;;;;17.73;3.00;;;;;;;15.43;78.91;99795.59;4959241;28;20043;-67
2021/04/22 03:52:30;;;;;;;5.60;2.17;;;;;;;15.44;78.73;99802.84;4959170;28;20050;-69
2021/04/22 03:54:56;;;;;;;21.30;3.07;;;;;;;15.29;78.98;99779.69;4957325;28;20065;-67
2021/04/22 03:57:23;;;;;;;17.37;3.03;;;;;;;15.43;78.77;99801.22;4961370;28;20503;-66
2021/04/22 03:59:49;;;;;;;15.67;4.03;;;;;;;15.43;78.79;99804.03;4957005;28;20043;-67
2021/04/22 04:02:18;;;;;;;23.10;4.27;;;;;;;15.39;78.68;99789.78;4960369;28;20047;-66
2021/04/22 04:04:45;;;;;;;16.05;2.80;;;;;;;15.46;78.64;99798.56;4959533;28;20059;-68
2021/04/22 04:07:11;;;;;;;11.40;2.60;;;;;;;15.45;78.59;99807.31;4958039;28;20050;-67
2021/04/22 04:09:38;;;;;;;19.90;4.13;;;;;;;15.43;78.63;99804.03;4959333;28;20419;-68
2021/04/22 04:12:05;;;;;;;10.77;3.00;;;;;;;15.31;78.57;99787.78;4963229;28;20062;-66
2021/04/22 04:14:34;;;;;;;16.73;3.40;;;;;;;15.30;78.53;99786.97;4959298;28;20043;-67
2021/04/22 04:17:02;;;;;;;15.90;3.23;;;;;;;15.40;78.52;99797.88;4960714;28;20134;-66
2021/04/22 04:19:29;;;;;;;15.80;3.37;;;;;;;15.35;78.57;99795.25;4959425;28;20054;-67
2021/04/22 04:21:55;;;;;;;12.67;2.90;;;;;;;15.39;78.56;99801.06;4960841;28;20047;-67
2021/04/22 04:24:21;;;;;;;8.83;3.03;;;;;;;15.35;78.26;99802.84;4961370;28;20046;-73
2021/04/22 04:26:48;;;;;;;17.07;3.07;;;;;;;15.30;78.21;99798.22;4966819;28;20480;-73
2021/04/22 04:29:14;;;;;;;14.23;2.60;;;;;;;15.32;78.35;99798.72;4966259;28;20414;-71
2021/04/22 04:31:41;;;;;;;14.40;2.93;;;;;;;15.28;78.36;99794.06;4964740;28;20055;-75
2021/04/22 04:34:07;;;;;;;13.67;3.37;;;;;;;15.26;78.45;99808.47;4964169;28;20562;-72
2021/04/22 04:36:33;;;;;;;9.23;2.57;;;;;;;15.22;78.56;99809.50;4957184;28;20520;-71
2021/04/22 04:39:00;;;;;;;17.93;3.43;;;;;;;15.13;78.88;99801.03;4959427;28;20392;-71
2021/04/22 04:41:26;;;;;;;11.60;3.47;;;;;;;15.09;78.67;99792.41;4961143;28;20051;-70
2021/04/22 04:43:53;;;;;;;17.63;3.77;;;;;;;15.15;78.83;99812.78;4966794;28;20411;-72
2021/04/22 04:46:19;;;;;;;16.83;3.80;;;;;;;15.11;78.92;99811.75;4963314;28;20401;-72
2021/04/22 04:48:46;;;;;;;13.53;2.90;;;;;;;15.11;78.86;99808.94;4966066;28;20046;-69
2021/04/22 04:51:14;;;;;;;19.90;4.00;;;;;;;15.07;78.96;99816.41;4963708;28;20043;-73
2021/04/22 04:53:40;;;;;;;9.50;3.67;;;;;;;15.14;78.91;99830.78;4964459;28;20427;-81
2021/04/22 04:56:07;;;;;;;19.43;3.20;;;;;;;15.07;78.83;99816.41;4961467;28;20087;-72
2021/04/22 04:58:35;;;;;;;10.10;3.23;;;;;;;15.05;78.72;99829.97;4966372;28;20459;-73
2021/04/22 05:01:02;;;;;;;15.17;5.00;;;;;;;15.11;78.54;99837.06;4963095;28;20039;-78
2021/04/22 05:03:28;;;;;;;13.43;3.53;;;;;;;15.12;78.49;99844.38;4967048;28;20135;-73
2021/04/22 05:05:54;;;;;;;12.73;3.80;;;;;;;15.10;78.65;99843.88;4963150;28;20046;-74
2021/04/22 05:08:20;;;;;;;15.37;2.83;;;;;;;15.05;79.05;99841.22;4964086;28;20051;-75
2021/04/22 05:10:47;;;;;;;9.83;3.23;;;;;;;14.92;79.13;99832.59;4965055;28;20138;-74
2021/04/22 05:13:13;;;;;;;15.27;3.87;;;;;;;15.01;79.54;99840.19;4967984;28;20052;-69
2021/04/22 05:15:39;;;;;;;15.87;3.40;;;;;;;15.04;79.67;99845.16;4961601;28;20407;-71
2021/04/22 05:18:06;;;;;;;27.10;3.57;;;;;;;15.05;79.78;99846.84;4964291;28;20432;-68
2021/04/22 05:20:32;;;;;;;22.13;4.13;;;;;;;15.07;79.88;99855.75;4965890;28;20043;-76
2021/04/22 05:22:58;;;;;;;22.73;4.03;;;;;;;15.06;79.89;99859.75;4960030;28;20043;-79
2021/04/22 05:25:25;;;;;;;17.57;4.03;;;;;;;15.04;80.29;99856.41;4965423;28;20055;-74
2021/04/22 05:27:51;;;;;;;12.70;4.20;;;;;;;14.93;80.34;99845.47;4963286;28;20069;-83
2021/04/22 05:30:19;;;;;;;21.57;4.20;;;;;;;15.08;80.30;99866.69;4959183;28;20057;-70
2021/04/22 05:32:45;;;;;;;9.33;3.23;;;;;;;15.11;80.36;99862.38;4960410;28;20397;-65
2021/04/22 05:35:13;;;;;;;12.50;4.57;;;;;;;15.15;80.18;99857.78;4962466;28;20047;-66
2021/04/22 05:37:50;;;;;;;15.17;4.40;;;;;;;15.24;80.37;99869.03;4964228;28;20073;-67
2021/04/22 05:40:17;;;;;;;23.03;3.87;;;;;;;14.97;80.51;99819.53;4961579;28;20436;-65
2021/04/22 05:42:44;;;;;;;22.23;4.87;;;;;;;15.33;80.45;99875.50;4962454;28;20129;-65
2021/04/22 05:45:13;;;;;;;21.87;3.93;;;;;;;15.26;80.60;99869.53;4962498;28;20495;-71
2021/04/22 05:47:40;;;;;;;14.93;3.97;;;;;;;15.35;80.55;99887.25;4959018;28;20078;-68
2021/04/22 05:50:07;;;;;;;11.70;3.67;;;;;;;15.35;80.76;99884.44;4960815;28;20042;-73
2021/04/22 05:52:33;;;;;;;15.33;5.20;;;;;;;15.35;80.66;99884.44;4965540;28;20419;-68
2021/04/22 05:54:59;;;;;;;22.13;4.90;;;;;;;15.36;80.69;99898.19;4961794;28;20046;-64
2021/04/22 05:57:26;;;;;;;13.30;4.27;;;;;;;15.34;80.59;99900.47;4961776;28;20047;-62
2021/04/22 05:59:52;;;;;;;23.17;5.07;;;;;;;15.36;80.86;99903.00;4962997;28;20050;-63
2021/04/22 06:02:20;;;;;;;19.83;5.10;;;;;;;15.35;80.79;99896.53;4961889;28;20094;-65
2021/04/22 06:04:46;;;;;;;11.60;4.20;;;;;;;15.46;80.66;99907.47;4965904;28;20414;-65
2021/04/22 06:07:14;;;;;;;13.33;4.43;;;;;;;15.43;80.74;99899.69;4964877;28;20043;-63
2021/04/22 06:09:40;;;;;;;19.80;3.73;;;;;;;15.51;80.66;99913.75;4962425;28;20369;-62
2021/04/22 06:12:08;;;;;;;17.77;5.00;;;;;;;15.56;80.76;99912.78;4964168;28;20480;-64
2021/04/22 06:14:34;;;;;;;16.43;3.87;;;;;;;15.47;80.63;99920.38;4963012;28;20140;-63
2021/04/22 06:17:00;;;;;;;14.77;5.03;;;;;;;15.46;80.66;99928.00;4964169;28;20065;-63
2021/04/22 06:19:27;;;;;;;14.13;3.40;;;;;;;15.43;80.56;99925.00;4963803;28;20405;-63
2021/04/22 06:21:53;;;;;;;16.23;5.37;;;;;;;15.36;80.66;99923.50;4955211;28;20043;-64
2021/04/22 06:24:19;;;;;;;19.73;5.03;;;;;;;15.32;80.80;99922.50;4961634;28;20047;-65
2021/04/22 06:26:47;;;;;;;13.27;4.10;;;;;;;15.46;80.74;99941.25;4964257;28;20047;-63
2021/04/22 06:29:13;;;;;;;15.53;4.17;;;;;;;15.40;80.79;99929.31;4962988;28;20057;-64
2021/04/22 06:31:39;;;;;;;20.33;4.50;;;;;;;15.44;80.71;99947.19;4962709;28;20342;-64
2021/04/22 06:34:06;;;;;;;10.23;3.40;;;;;;;15.46;80.88;99958.13;4960356;28;20194;-66
2021/04/22 06:36:32;;;;;;;10.10;3.37;;;;;;;15.44;81.02;99961.25;4959050;28;20049;-63
2021/04/22 06:38:58;;;;;;;16.00;3.90;;;;;;;15.36;81.21;99943.19;4963875;28;20050;-65
2021/04/22 06:41:25;;;;;;;14.50;4.47;;;;;;;15.50;81.16;99970.38;4935682;28;738420;-66
2021/04/22 06:43:51;;;;;;;11.33;3.53;;;;;;;15.37;81.38;99944.03;4958706;28;20166;-64
2021/04/22 06:46:17;;;;;;;14.77;4.10;;;;;;;15.62;81.66;99968.59;4960997;28;20071;-66
2021/04/22 06:48:44;;;;;;;11.67;4.17;;;;;;;15.56;81.68;99958.63;4963408;28;20050;-65
2021/04/22 06:51:11;;;;;;;17.57;4.73;;;;;;;15.75;81.49;99983.69;4960174;28;20051;-65
2021/04/22 06:53:37;;;;;;;16.67;3.97;;;;;;;15.83;81.59;99977.25;4958711;28;20568;-66
2021/04/22 06:56:05;;;;;;;16.83;4.40;;;;;;;15.84;81.47;99981.72;4964179;28;20053;-66
2021/04/22 06:58:32;;;;;;;14.50;4.00;;;;;;;15.62;81.19;99976.16;4964590;28;20051;-64
2021/04/22 07:00:58;;;;;;;24.10;5.17;;;;;;;15.51;81.04;99977.66;4962125;28;20044;-66
2021/04/22 07:03:25;;;;;;;13.50;3.97;;;;;;;15.39;81.30;99986.75;4957876;28;20051;-65
2021/04/22 07:05:51;;;;;;;17.17;4.80;;;;;;;15.12;81.33;99966.13;4961364;28;20050;-66
2021/04/22 07:08:17;;;;;;;11.77;5.40;;;;;;;15.31;81.45;99995.97;4961364;28;20039;-66
2021/04/22 07:10:44;;;;;;;21.03;6.20;;;;;;;15.44;81.14;99995.00;4964710;28;20519;-64
2021/04/22 07:13:11;;;;;;;23.17;6.40;;;;;;;15.46;81.31;100003.97;4958089;28;20050;-66
2021/04/22 07:15:38;;;;;;;18.77;4.87;;;;;;;15.51;81.19;100005.78;4960771;28;20427;-66
2021/04/22 07:18:06;;;;;;;20.07;5.30;;;;;;;15.58;81.00;100006.13;4958363;28;20042;-67
2021/04/22 07:20:33;;;;;;;22.47;6.43;;;;;;;15.64;81.12;100016.09;4953719;28;20412;-66
2021/04/22 07:23:00;;;;;;;15.77;5.23;;;;;;;15.68;80.91;100014.31;4953383;28;20126;-66
2021/04/22 07:25:32;;;;;;;26.13;5.87;;;;;;;15.41;80.87;99976.78;4956812;28;20110;-64
2021/04/22 07:28:04;;;;;;;24.53;7.33;;;;;;;15.71;80.98;100030.53;4953740;28;20058;-66
2021/04/22 07:30:31;;;;;;;29.03;6.90;;;;;;;15.72;81.24;100035.00;4955257;28;20047;-63
2021/04/22 07:32:58;;;;;;;14.03;6.00;;;;;;;15.71;81.08;100035.34;4954751;28;20408;-66
2021/04/22 07:35:25;;;;;;;20.20;6.57;;;;;;;15.65;80.83;100040.25;4953607;28;20047;-66
2021/04/22 07:37:51;;;;;;;14.63;5.83;;;;;;;15.54;81.00;100033.28;4953445;28;20049;-66
2021/04/22 07:40:21;;;;;;;24.67;5.80;;;;;;;15.47;80.80;100032.94;4952060;28;20055;-65
2021/04/22 07:42:47;;;;;;;10.30;5.20;;;;;;;15.39;80.74;100038.22;4953812;28;20047;-67
2021/04/22 07:45:17;;;;;;;13.13;5.13;;;;;;;15.36;80.94;100021.97;4963135;28;20047;-66
2021/04/22 07:47:44;;;;;;;14.20;4.80;;;;;;;15.46;81.29;100042.53;4963723;28;20051;-66
2021/04/22 07:50:13;;;;;;;11.37;5.30;;;;;;;15.41;81.32;100037.88;4956904;28;20048;-66
2021/04/22 07:52:41;;;;;;;5.33;2.80;;;;;;;15.34;81.51;100034.69;4956894;28;20054;-67
2021/04/22 07:55:09;;;;;;;2.70;1.90;;;;;;;15.21;81.65;100032.81;4960096;28;20047;-67
2021/04/22 07:57:35;;;;;;;13.10;3.93;;;;;;;15.30;81.34;100040.16;4957293;28;20126;-66
2021/04/22 08:00:07;;;;;;;10.77;4.77;;;;;;;15.26;81.45;100039.16;4962500;28;20378;-67
2021/04/22 08:02:38;;;;;;;4.53;2.23;;;;;;;15.35;81.47;100048.47;4964316;28;20043;-66
2021/04/22 08:05:07;;;;;;;3.90;1.50;;;;;;;15.35;81.50;100054.09;4956732;28;20074;-67
2021/04/22 08:07:34;;;;;;;13.93;4.60;;;;;;;15.35;81.83;100053.22;4961048;28;20048;-67
2021/04/22 08:10:01;;;;;;;16.50;3.60;;;;;;;15.66;81.87;100053.22;4961225;28;20047;-67
2021/04/22 08:12:27;;;;;;;15.53;4.20;;;;;;;15.86;81.53;100057.41;4956765;28;20087;-66
2021/04/22 08:14:58;;;;;;;16.60;4.00;;;;;;;15.87;81.33;100056.25;4961751;28;20051;-68
2021/04/22 08:17:24;;;;;;;12.63;3.53;;;;;;;15.91;80.85;100064.88;4957060;28;20509;-67
2021/04/22 08:19:50;;;;;;;14.30;4.53;;;;;;;15.90;80.77;100057.56;4964959;28;20389;-66
2021/04/22 08:22:17;;;;;;;21.00;5.53;;;;;;;15.99;80.39;100078.13;4963975;28;20054;-67
2021/04/22 08:24:43;;;;;;;16.27;5.50;;;;;;;16.10;80.59;100077.50;4961871;28;20051;-67
2021/04/22 08:27:10;;;;;;;15.87;4.53;;;;;;;16.24;80.59;100074.53;4961712;28;20539;-66
2021/04/22 08:29:36;;;;;;;18.30;5.22;;;;;;;16.44;80.68;100067.38;4965932;28;20051;-66
2021/04/22 08:32:03;;;;;;;10.07;3.95;;;;;;;16.76;80.16;100079.34;4963652;28;20082;-66
2021/04/22 08:34:29;;;;;;;13.68;5.30;;;;;;;16.77;79.46;100076.19;4955584;28;20047;-65
2021/04/22 08:36:55;;;;;;;11.27;4.50;;;;;;;16.87;79.61;100082.66;4957655;28;20053;-66
2021/04/22 08:39:22;;;;;;;19.57;4.80;;;;;;;16.77;79.91;100087.47;4960903;28;20054;-65
2021/04/22 08:41:49;;;;;;;15.03;4.40;;;;;;;16.52;79.71;100075.03;4963066;28;20061;-66
2021/04/22 08:44:15;;;;;;;12.75;3.45;;;;;;;16.31;80.21;100074.03;4959930;28;20416;-65
2021/04/22 08:46:45;;;;;;;13.02;3.22;;;;;;;16.38;80.28;100102.56;4955192;28;20039;-67
2021/04/22 08:49:11;;;;;;;9.95;3.22;;;;;;;16.35;80.55;100098.41;4964026;28;20146;-67
2021/04/22 08:51:38;;;;;;;11.13;3.17;;;;;;;16.33;81.22;100086.63;4962356;28;20051;-66
2021/04/22 08:54:05;;;;;;;16.38;3.95;;;;;;;16.26;81.03;100083.47;4960503;28;20047;-66
2021/04/22 08:56:34;;;;;;;12.30;3.85;;;;;;;16.39;81.43;100103.38;4962301;28;20055;-67
2021/04/22 08:59:02;;;;;;;12.43;3.65;;;;;;;16.40;81.43;100096.56;4962782;28;20077;-67
2021/04/22 09:01:28;;;;;;;19.63;4.32;;;;;;;16.42;81.02;100102.72;4960830;28;20050;-68
2021/04/22 09:03:55;;;;;;;12.27;4.85;;;;;;;16.39;81.12;100103.38;4958727;28;20133;-68
2021/04/22 09:06:22;;;;;;;16.70;4.57;;;;;;;16.49;80.98;100111.50;4963114;28;20046;-68
2021/04/22 09:08:51;;;;;;;14.90;3.72;;;;;;;16.53;81.10;100112.50;4956006;28;20143;-68
2021/04/22 09:11:22;;;;;;;8.05;3.42;;;;;;;16.60;80.89;100112.81;4962182;28;20039;-67
2021/04/22 09:13:53;;;;;;;13.02;3.30;;;;;;;16.67;81.36;100110.34;4968235;28;20066;-67
2021/04/22 09:16:23;;;;;;;17.88;4.65;;;;;;;16.91;81.49;100112.66;4959546;28;20043;-66
2021/04/22 09:18:53;;;;;;;19.13;5.00;;;;;;;17.15;81.09;100106.47;4966666;28;20043;-66
2021/04/22 09:21:30;;;;;;;15.98;5.13;;;;;;;17.41;81.65;100111.25;4965033;28;20054;-67
2021/04/22 09:24:13;;;;;;;17.95;5.47;;;;;;;17.74;81.49;100115.09;4956483;28;20046;-67
2021/04/22 09:26:53;;;;;;;19.83;7.55;;;;;;;18.17;80.98;100110.38;4966368;28;20043;-67
2021/04/22 09:29:32;;;;;;;17.17;6.25;;;;;;;18.33;81.10;100119.09;4957806;28;20129;-68
2021/04/22 09:32:13;;;;;;;17.85;5.70;;;;;;;18.59;81.00;100111.22;4967191;28;20047;-68
2021/04/22 09:34:45;;;;;;;7.47;4.00;;;;;;;19.12;80.13;100109.59;4959848;28;20051;-67
2021/04/22 09:37:11;;;;;;;;;;;;;;;19.51;80.06;100107.31;4962067;28;20043;-67
2021/04/22 09:39:38;;;;;;;11.00;3.42;;;;;;;20.48;78.34;100117.03;4967197;28;20278;-67
2021/04/22 09:42:11;;;;;;;7.68;3.28;;;;;;;21.50;76.41;100113.88;4969619;28;20051;-67
2021/04/22 09:44:39;;;;;;;7.72;2.78;;;;;;;22.48;74.11;100115.94;4965198;28;20063;-68
2021/04/22 09:47:16;;;;;;;7.05;3.30;;;;;;;22.63;74.75;100117.06;4955754;28;20051;-68
2021/04/22 09:49:56;;;;;;;4.97;2.20;;;;;;;22.48;74.19;100107.41;4961373;28;20404;-67
2021/04/22 09:52:28;;;;;;;9.90;2.42;;;;;;;22.41;73.68;100122.28;4957764;28;20240;-68
2021/04/22 09:54:55;;;;;;;8.00;2.17;;;;;;;22.10;74.50;100110.94;4955109;28;20451;-67
2021/04/22 09:57:25;;;;;;;8.40;2.50;;;;;;;21.84;74.22;100123.72;4959176;28;20043;-67
2021/04/22 09:59:51;;;;;;;;;;;;;;;21.75;77.04;100132.44;4957369;28;20053;-67
2021/04/22 10:02:20;;;;;;;10.25;3.03;;;;;;;22.11;74.33;100132.50;4962663;28;20268;-67
2021/04/22 10:04:52;;;;;;;6.55;2.63;;;;;;;22.83;72.58;100132.97;4959735;28;20058;-67
2021/04/22 10:07:22;;;;;;;10.20;2.28;;;;;;;23.49;70.95;100125.38;4963479;28;20048;-67
2021/04/22 10:09:52;;;;;;;7.63;1.80;;;;;;;23.96;70.25;100129.06;4961799;28;20043;-67
2021/04/22 10:12:26;;;;;;;5.70;2.13;;;;;;;24.16;69.74;100124.94;4957195;28;20414;-67
2021/04/22 10:15:07;;;;;;;6.70;2.10;;;;;;;24.28;69.48;100127.56;4959320;28;20059;-67
2021/04/22 10:17:33;;;;;;;10.52;1.70;;;;;;;24.00;69.88;100122.25;4959974;28;20050;-67
2021/04/22 10:20:03;;;;;;;5.68;2.10;;;;;;;23.82;70.51;100121.91;4959259;28;20051;-68
2021/04/22 10:22:41;;;;;;;7.13;2.20;;;;;;;23.51;71.02;100130.69;4956636;28;20047;-68
2021/04/22 10:25:10;;;;;;;5.38;1.42;;;;;;;23.20;71.52;100129.69;4966625;28;20058;-67
2021/04/22 10:27:37;;;;;;;5.87;1.43;;;;;;;22.85;72.57;100132.59;4959134;28;20073;-67
2021/04/22 10:30:07;;;;;;;7.55;1.95;;;;;;;22.50;71.94;100138.34;4959435;28;20122;-67
2021/04/22 10:32:39;;;;;;;6.30;1.83;;;;;;;21.98;72.58;100131.78;4966022;28;20121;-66
2021/04/22 10:35:13;;;;;;;8.55;1.45;;;;;;;21.56;72.47;100120.13;4963984;28;20054;-67
2021/04/22 10:37:43;;;;;;;3.45;1.52;;;;;;;21.41;72.40;100141.66;4954227;28;20043;-67
2021/04/22 10:40:19;;;;;;;5.88;1.42;;;;;;;21.15;72.46;100136.44;4966474;28;20093;-65
2021/04/22 10:42:46;;;;;;;4.15;1.30;;;;;;;20.78;72.73;100122.38;4967347;28;20054;-66
2021/04/22 10:45:15;;;;;;;7.82;2.03;;;;;;;20.73;72.54;100137.66;4964015;28;20761;-64
2021/04/22 10:47:42;;;;;;;;;;;;;;;20.65;75.60;100134.94;4965369;28;20123;-65
2021/04/22 10:50:32;;;;;;;10.15;2.22;;;;;;;20.55;74.48;100128.63;4957697;28;19933;-64
2021/04/22 10:53:05;;;;;;;7.13;2.00;;;;;;;20.68;73.34;100140.72;4957898;28;20072;-65
2021/04/22 10:55:36;;;;;;;10.68;2.42;;;;;;;20.90;72.83;100144.22;4959241;28;20047;-64
2021/04/22 10:58:17;;;;;;;10.73;2.10;;;;;;;21.08;73.28;100144.75;4953782;28;20129;-65
2021/04/22 11:00:49;;;;;;;5.05;1.67;;;;;;;21.40;72.12;100137.16;4961306;28;21997;-64
2021/04/22 11:03:24;;;;;;;6.55;1.90;;;;;;;21.48;72.10;100142.69;4962091;28;20045;-65
2021/04/22 11:05:56;;;;;;;8.52;2.55;;;;;;;21.55;71.46;100135.53;4962998;28;20051;-64
2021/04/22 11:08:46;;;;;;;4.13;1.17;;;;;;;21.72;71.77;100141.69;4959474;28;20424;-65
2021/04/22 11:11:32;;;;;;;5.97;1.67;;;;;;;22.34;71.69;100133.50;4954501;28;20050;-65
2021/04/22 11:14:15;;;;;;;6.93;2.25;;;;;;;22.71;70.96;100135.97;4954943;28;20102;-65
2021/04/22 11:16:45;;;;;;;6.47;1.35;;;;;;;22.81;70.59;100141.06;4960998;28;20048;-65
2021/04/22 11:19:17;;;;;;;5.40;1.33;;;;;;;22.79;70.33;100137.75;4957355;28;20122;-66
2021/04/22 11:21:59;;;;;;;8.30;2.00;;;;;;;22.58;70.78;100123.88;4957201;28;21000;-65
2021/04/22 11:24:41;;;;;;;4.28;1.65;;;;;;;22.47;69.55;100137.06;4962599;28;20051;-66
2021/04/22 11:27:11;;;;;;;7.45;1.80;;;;;;;22.34;68.97;100133.50;4961911;28;20145;-66
2021/04/22 11:29:58;;;;;;;7.40;2.05;;;;;;;23.09;68.69;100142.91;4950062;28;20051;-67
2021/04/22 11:32:30;;;;;;;7.22;1.83;;;;;;;24.34;67.75;100145.16;4961314;28;20054;-66